sensor_id;sensor_type;location;lat;lon;timestamp;pressure;altitude;pressure_sealevel;temperature;humidity
11542;BME280;5827;49.482;7.716;2023-04-26T00:01:36;98950.69;;;4.27;100.00
11542;BME280;5827;49.482;7.716;2023-04-26T00:03:38;98946.94;;;4.15;100.00
11542;BME280;5827;49.482;7.716;2023-04-26T00:05:40;98947.75;;;4.16;100.00
11542;BME280;5827;49.482;7.716;2023-04-26T00:07:42;98956.53;;;4.16;100.00
11542;BME280;5827;49.482;7.716;2023-04-26T00:09:44;98954.06;;;4.08;100.00
11542;BME280;5827;49.482;7.716;2023-04-26T00:11:46;98956.66;;;4.01;100.00
11542;BME280;5827;49.482;7.716;2023-04-26T00:13:48;98953.34;;;3.93;100.00
11542;BME280;5827;49.482;7.716;2023-04-26T00:15:50;98950.91;;;3.91;100.00
11542;BME280;5827;49.482;7.716;2023-04-26T00:17:51;98946.66;;;3.97;100.00
11542;BME280;5827;49.482;7.716;2023-04-26T00:19:53;98946.63;;;3.90;100.00
11542;BME280;5827;49.482;7.716;2023-04-26T00:21:56;98948.47;;;3.90;100.00
11542;BME280;5827;49.482;7.716;2023-04-26T00:23:58;98944.78;;;3.91;100.00
11542;BME280;5827;49.482;7.716;2023-04-26T00:25:59;98947.88;;;3.94;100.00
11542;BME280;5827;49.482;7.716;2023-04-26T00:28:02;98949.06;;;3.92;100.00
11542;BME280;5827;49.482;7.716;2023-04-26T00:30:05;98946.19;;;3.87;100.00
11542;BME280;5827;49.482;7.716;2023-04-26T00:32:07;98949.81;;;3.79;100.00
11542;BME280;5827;49.482;7.716;2023-04-26T00:34:08;98961.00;;;3.74;100.00
11542;BME280;5827;49.482;7.716;2023-04-26T00:36:11;98963.84;;;3.73;100.00
11542;BME280;5827;49.482;7.716;2023-04-26T00:38:13;98959.34;;;3.67;100.00
11542;BME280;5827;49.482;7.716;2023-04-26T00:40:15;98951.19;;;3.68;100.00
11542;BME280;5827;49.482;7.716;2023-04-26T00:42:16;98955.84;;;3.66;100.00
11542;BME280;5827;49.482;7.716;2023-04-26T00:44:20;98947.91;;;3.66;100.00
11542;BME280;5827;49.482;7.716;2023-04-26T00:46:21;98953.59;;;3.63;100.00
11542;BME280;5827;49.482;7.716;2023-04-26T00:48:23;98954.56;;;3.55;100.00
11542;BME280;5827;49.482;7.716;2023-04-26T00:50:25;98953.22;;;3.38;100.00
11542;BME280;5827;49.482;7.716;2023-04-26T00:52:27;98958.34;;;3.40;100.00
11542;BME280;5827;49.482;7.716;2023-04-26T00:54:29;98954.69;;;3.47;100.00
11542;BME280;5827;49.482;7.716;2023-04-26T00:56:31;98955.28;;;3.43;100.00
11542;BME280;5827;49.482;7.716;2023-04-26T00:58:32;98955.84;;;3.38;100.00
11542;BME280;5827;49.482;7.716;2023-04-26T01:00:35;98954.88;;;3.39;100.00
11542;BME280;5827;49.482;7.716;2023-04-26T01:02:37;98953.53;;;3.28;100.00
11542;BME280;5827;49.482;7.716;2023-04-26T01:04:39;98954.31;;;3.22;100.00
11542;BME280;5827;49.482;7.716;2023-04-26T01:06:41;98947.00;;;3.24;100.00
11542;BME280;5827;49.482;7.716;2023-04-26T01:08:42;98947.19;;;3.23;100.00
11542;BME280;5827;49.482;7.716;2023-04-26T01:10:44;98946.25;;;3.30;100.00
11542;BME280;5827;49.482;7.716;2023-04-26T01:12:45;98941.31;;;3.27;100.00
11542;BME280;5827;49.482;7.716;2023-04-26T01:14:48;98940.31;;;3.28;100.00
11542;BME280;5827;49.482;7.716;2023-04-26T01:16:51;98946.81;;;3.26;100.00
11542;BME280;5827;49.482;7.716;2023-04-26T01:18:53;98939.88;;;3.25;100.00
11542;BME280;5827;49.482;7.716;2023-04-26T01:20:54;98942.09;;;3.21;100.00
11542;BME280;5827;49.482;7.716;2023-04-26T01:22:58;98938.00;;;3.19;100.00
11542;BME280;5827;49.482;7.716;2023-04-26T01:25:00;98946.00;;;3.25;100.00
11542;BME280;5827;49.482;7.716;2023-04-26T01:27:06;98943.25;;;3.12;100.00
11542;BME280;5827;49.482;7.716;2023-04-26T01:29:15;98945.06;;;3.12;100.00
11542;BME280;5827;49.482;7.716;2023-04-26T01:31:17;98944.44;;;3.10;100.00
11542;BME280;5827;49.482;7.716;2023-04-26T01:33:19;98942.81;;;3.09;100.00
11542;BME280;5827;49.482;7.716;2023-04-26T01:35:21;98938.19;;;3.17;100.00
11542;BME280;5827;49.482;7.716;2023-04-26T01:37:22;98944.50;;;3.16;100.00
11542;BME280;5827;49.482;7.716;2023-04-26T01:39:25;98944.66;;;3.15;100.00
11542;BME280;5827;49.482;7.716;2023-04-26T01:41:27;98945.88;;;3.12;100.00
11542;BME280;5827;49.482;7.716;2023-04-26T01:43:28;98943.97;;;3.06;100.00
11542;BME280;5827;49.482;7.716;2023-04-26T01:45:30;98948.22;;;3.00;100.00
11542;BME280;5827;49.482;7.716;2023-04-26T01:47:31;98948.22;;;3.00;100.00
11542;BME280;5827;49.482;7.716;2023-04-26T01:49:33;98952.66;;;2.93;100.00
11542;BME280;5827;49.482;7.716;2023-04-26T01:51:35;98953.84;;;2.91;100.00
11542;BME280;5827;49.482;7.716;2023-04-26T01:53:36;98950.56;;;2.89;100.00
11542;BME280;5827;49.482;7.716;2023-04-26T01:55:39;98952.13;;;2.83;100.00
11542;BME280;5827;49.482;7.716;2023-04-26T01:57:41;98948.22;;;2.79;100.00
11542;BME280;5827;49.482;7.716;2023-04-26T01:59:42;98948.50;;;2.84;100.00
11542;BME280;5827;49.482;7.716;2023-04-26T02:01:44;98940.09;;;2.80;100.00
11542;BME280;5827;49.482;7.716;2023-04-26T02:03:46;98946.25;;;2.88;100.00
11542;BME280;5827;49.482;7.716;2023-04-26T02:05:48;98949.56;;;2.90;100.00
11542;BME280;5827;49.482;7.716;2023-04-26T02:07:49;98945.44;;;2.87;100.00
11542;BME280;5827;49.482;7.716;2023-04-26T02:09:51;98946.47;;;2.86;100.00
11542;BME280;5827;49.482;7.716;2023-04-26T02:11:54;98945.66;;;2.86;100.00
11542;BME280;5827;49.482;7.716;2023-04-26T02:13:55;98946.22;;;2.81;100.00
11542;BME280;5827;49.482;7.716;2023-04-26T02:15:57;98950.03;;;2.78;100.00
11542;BME280;5827;49.482;7.716;2023-04-26T02:17:59;98949.53;;;2.68;100.00
11542;BME280;5827;49.482;7.716;2023-04-26T02:20:01;98947.09;;;2.67;100.00
11542;BME280;5827;49.482;7.716;2023-04-26T02:22:04;98939.53;;;2.64;100.00
11542;BME280;5827;49.482;7.716;2023-04-26T02:24:07;98942.47;;;2.54;100.00
11542;BME280;5827;49.482;7.716;2023-04-26T02:26:09;98941.00;;;2.51;100.00
11542;BME280;5827;49.482;7.716;2023-04-26T02:28:12;98937.19;;;2.54;100.00
11542;BME280;5827;49.482;7.716;2023-04-26T02:30:13;98938.56;;;2.50;100.00
11542;BME280;5827;49.482;7.716;2023-04-26T02:32:15;98949.75;;;2.52;100.00
11542;BME280;5827;49.482;7.716;2023-04-26T02:34:16;98955.84;;;2.67;100.00
11542;BME280;5827;49.482;7.716;2023-04-26T02:36:18;98956.59;;;2.61;100.00
11542;BME280;5827;49.482;7.716;2023-04-26T02:38:19;98949.47;;;2.62;100.00
11542;BME280;5827;49.482;7.716;2023-04-26T02:40:21;98955.34;;;2.57;100.00
11542;BME280;5827;49.482;7.716;2023-04-26T02:42:23;98952.84;;;2.55;100.00
11542;BME280;5827;49.482;7.716;2023-04-26T02:44:29;98947.97;;;2.52;100.00
11542;BME280;5827;49.482;7.716;2023-04-26T02:46:30;98947.97;;;2.38;100.00
11542;BME280;5827;49.482;7.716;2023-04-26T02:48:32;98955.09;;;2.37;100.00
11542;BME280;5827;49.482;7.716;2023-04-26T02:50:33;98949.00;;;2.37;100.00
11542;BME280;5827;49.482;7.716;2023-04-26T02:52:35;98944.97;;;2.41;100.00
11542;BME280;5827;49.482;7.716;2023-04-26T02:54:37;98949.81;;;2.37;100.00
11542;BME280;5827;49.482;7.716;2023-04-26T02:56:38;98951.63;;;2.37;100.00
11542;BME280;5827;49.482;7.716;2023-04-26T02:58:40;98956.03;;;2.29;100.00
11542;BME280;5827;49.482;7.716;2023-04-26T03:00:45;98949.56;;;2.32;100.00
11542;BME280;5827;49.482;7.716;2023-04-26T03:02:47;98953.47;;;2.36;100.00
11542;BME280;5827;49.482;7.716;2023-04-26T03:04:49;98949.34;;;2.34;100.00
11542;BME280;5827;49.482;7.716;2023-04-26T03:06:50;98955.69;;;2.18;100.00
11542;BME280;5827;49.482;7.716;2023-04-26T03:08:52;98952.13;;;2.25;100.00
11542;BME280;5827;49.482;7.716;2023-04-26T03:10:54;98954.22;;;2.30;100.00
11542;BME280;5827;49.482;7.716;2023-04-26T03:12:56;98954.03;;;2.32;100.00
11542;BME280;5827;49.482;7.716;2023-04-26T03:14:57;98952.13;;;2.25;100.00
11542;BME280;5827;49.482;7.716;2023-04-26T03:17:01;98947.66;;;2.26;100.00
11542;BME280;5827;49.482;7.716;2023-04-26T03:19:03;98950.38;;;2.33;100.00
11542;BME280;5827;49.482;7.716;2023-04-26T03:21:04;98946.72;;;2.34;100.00
11542;BME280;5827;49.482;7.716;2023-04-26T03:23:06;98950.47;;;2.39;100.00
11542;BME280;5827;49.482;7.716;2023-04-26T03:25:08;98961.34;;;2.29;100.00
11542;BME280;5827;49.482;7.716;2023-04-26T03:27:10;98957.78;;;2.22;100.00
11542;BME280;5827;49.482;7.716;2023-04-26T03:29:11;98953.97;;;2.25;100.00
11542;BME280;5827;49.482;7.716;2023-04-26T03:31:12;98953.03;;;2.18;100.00
11542;BME280;5827;49.482;7.716;2023-04-26T03:33:15;98949.13;;;2.14;100.00
11542;BME280;5827;49.482;7.716;2023-04-26T03:35:17;98950.50;;;2.10;100.00
11542;BME280;5827;49.482;7.716;2023-04-26T03:37:18;98940.38;;;2.13;100.00
11542;BME280;5827;49.482;7.716;2023-04-26T03:39:20;98940.13;;;2.08;100.00
11542;BME280;5827;49.482;7.716;2023-04-26T03:41:21;98932.00;;;2.10;100.00
11542;BME280;5827;49.482;7.716;2023-04-26T03:43:23;98928.63;;;2.16;100.00
11542;BME280;5827;49.482;7.716;2023-04-26T03:45:24;98928.44;;;2.17;100.00
11542;BME280;5827;49.482;7.716;2023-04-26T03:47:26;98928.25;;;2.19;100.00
11542;BME280;5827;49.482;7.716;2023-04-26T03:49:28;98920.06;;;2.14;100.00
11542;BME280;5827;49.482;7.716;2023-04-26T03:51:31;98918.31;;;2.06;100.00
11542;BME280;5827;49.482;7.716;2023-04-26T03:53:32;98918.25;;;1.99;100.00
11542;BME280;5827;49.482;7.716;2023-04-26T03:55:34;98923.19;;;2.02;100.00
11542;BME280;5827;49.482;7.716;2023-04-26T03:57:36;98921.53;;;2.01;100.00
11542;BME280;5827;49.482;7.716;2023-04-26T03:59:37;98922.19;;;2.03;100.00
11542;BME280;5827;49.482;7.716;2023-04-26T04:01:38;98923.06;;;2.11;100.00
11542;BME280;5827;49.482;7.716;2023-04-26T04:03:40;98921.06;;;2.13;100.00
11542;BME280;5827;49.482;7.716;2023-04-26T04:05:43;98931.38;;;2.08;100.00
11542;BME280;5827;49.482;7.716;2023-04-26T04:07:45;98933.19;;;2.07;100.00
11542;BME280;5827;49.482;7.716;2023-04-26T04:09:46;98935.28;;;1.97;100.00
11542;BME280;5827;49.482;7.716;2023-04-26T04:11:48;98929.63;;;2.00;100.00
11542;BME280;5827;49.482;7.716;2023-04-26T04:13:49;98927.47;;;2.03;100.00
11542;BME280;5827;49.482;7.716;2023-04-26T04:15:51;98930.75;;;1.91;100.00
11542;BME280;5827;49.482;7.716;2023-04-26T04:17:52;98925.25;;;1.92;100.00
11542;BME280;5827;49.482;7.716;2023-04-26T04:19:54;98936.94;;;1.98;100.00
11542;BME280;5827;49.482;7.716;2023-04-26T04:21:57;98938.94;;;1.96;100.00
11542;BME280;5827;49.482;7.716;2023-04-26T04:23:59;98937.75;;;1.98;100.00
11542;BME280;5827;49.482;7.716;2023-04-26T04:26:00;98950.06;;;1.91;100.00
11542;BME280;5827;49.482;7.716;2023-04-26T04:28:02;98944.22;;;1.96;100.00
11542;BME280;5827;49.482;7.716;2023-04-26T04:30:05;98946.59;;;1.91;100.00
11542;BME280;5827;49.482;7.716;2023-04-26T04:32:08;98953.50;;;1.92;100.00
11542;BME280;5827;49.482;7.716;2023-04-26T04:34:10;98950.78;;;2.00;100.00
11542;BME280;5827;49.482;7.716;2023-04-26T04:36:12;98948.78;;;2.02;100.00
11542;BME280;5827;49.482;7.716;2023-04-26T04:38:17;98951.44;;;2.02;100.00
11542;BME280;5827;49.482;7.716;2023-04-26T04:40:18;98954.25;;;2.00;100.00
11542;BME280;5827;49.482;7.716;2023-04-26T04:42:20;98957.81;;;2.08;100.00
11542;BME280;5827;49.482;7.716;2023-04-26T04:44:21;98957.53;;;2.02;100.00
11542;BME280;5827;49.482;7.716;2023-04-26T04:46:23;98957.81;;;2.08;100.00
11542;BME280;5827;49.482;7.716;2023-04-26T04:48:25;98952.13;;;2.11;100.00
11542;BME280;5827;49.482;7.716;2023-04-26T04:50:26;98963.34;;;2.13;100.00
11542;BME280;5827;49.482;7.716;2023-04-26T04:52:28;98962.31;;;2.28;100.00
11542;BME280;5827;49.482;7.716;2023-04-26T04:54:31;98961.91;;;2.46;100.00
11542;BME280;5827;49.482;7.716;2023-04-26T04:56:33;98963.84;;;2.38;100.00
11542;BME280;5827;49.482;7.716;2023-04-26T04:58:35;98964.84;;;2.73;100.00
11542;BME280;5827;49.482;7.716;2023-04-26T05:00:37;98971.91;;;2.87;100.00
11542;BME280;5827;49.482;7.716;2023-04-26T05:02:38;98970.78;;;2.96;100.00
11542;BME280;5827;49.482;7.716;2023-04-26T05:04:40;98973.22;;;3.19;100.00
11542;BME280;5827;49.482;7.716;2023-04-26T05:06:41;98975.59;;;3.36;100.00
11542;BME280;5827;49.482;7.716;2023-04-26T05:08:43;98983.84;;;3.47;100.00
11542;BME280;5827;49.482;7.716;2023-04-26T05:10:46;98988.63;;;3.59;99.36
11542;BME280;5827;49.482;7.716;2023-04-26T05:12:47;98990.19;;;3.81;99.65
11542;BME280;5827;49.482;7.716;2023-04-26T05:14:49;98990.03;;;3.89;97.40
11542;BME280;5827;49.482;7.716;2023-04-26T05:16:50;98992.16;;;4.00;97.11
11542;BME280;5827;49.482;7.716;2023-04-26T05:18:52;99001.72;;;3.67;95.34
11542;BME280;5827;49.482;7.716;2023-04-26T05:20:53;98996.38;;;3.60;96.48
11542;BME280;5827;49.482;7.716;2023-04-26T05:22:55;98989.03;;;3.34;98.23
11542;BME280;5827;49.482;7.716;2023-04-26T05:24:56;98986.41;;;3.62;99.65
11542;BME280;5827;49.482;7.716;2023-04-26T05:26:59;98993.38;;;3.70;98.13
11542;BME280;5827;49.482;7.716;2023-04-26T05:29:01;99001.38;;;3.76;96.78
11542;BME280;5827;49.482;7.716;2023-04-26T05:31:03;99000.41;;;3.84;97.13
11542;BME280;5827;49.482;7.716;2023-04-26T05:33:05;98997.91;;;3.76;97.97
11542;BME280;5827;49.482;7.716;2023-04-26T05:35:07;99010.78;;;4.14;97.77
11542;BME280;5827;49.482;7.716;2023-04-26T05:37:09;99009.03;;;4.27;96.74
11542;BME280;5827;49.482;7.716;2023-04-26T05:39:10;99014.84;;;4.51;96.75
11542;BME280;5827;49.482;7.716;2023-04-26T05:41:12;99018.38;;;4.71;95.42
11542;BME280;5827;49.482;7.716;2023-04-26T05:43:15;99013.78;;;4.04;96.90
11542;BME280;5827;49.482;7.716;2023-04-26T05:45:17;99017.88;;;4.48;96.86
11542;BME280;5827;49.482;7.716;2023-04-26T05:47:18;99016.56;;;4.78;96.56
11542;BME280;5827;49.482;7.716;2023-04-26T05:49:20;99024.75;;;4.90;95.00
11542;BME280;5827;49.482;7.716;2023-04-26T05:51:21;99019.09;;;5.13;95.63
11542;BME280;5827;49.482;7.716;2023-04-26T05:53:23;99032.00;;;5.36;94.21
11542;BME280;5827;49.482;7.716;2023-04-26T05:55:25;99037.91;;;5.25;93.57
11542;BME280;5827;49.482;7.716;2023-04-26T05:57:26;99037.88;;;5.12;91.84
11542;BME280;5827;49.482;7.716;2023-04-26T05:59:29;99037.69;;;5.20;93.42
11542;BME280;5827;49.482;7.716;2023-04-26T06:01:32;99035.47;;;5.30;93.18
11542;BME280;5827;49.482;7.716;2023-04-26T06:03:33;99030.41;;;4.67;92.63
11542;BME280;5827;49.482;7.716;2023-04-26T06:05:35;99017.00;;;4.34;98.70
11542;BME280;5827;49.482;7.716;2023-04-26T06:07:37;99018.03;;;4.40;100.00
11542;BME280;5827;49.482;7.716;2023-04-26T06:09:38;99022.00;;;5.38;96.66
11542;BME280;5827;49.482;7.716;2023-04-26T06:11:40;99025.88;;;5.95;94.53
11542;BME280;5827;49.482;7.716;2023-04-26T06:13:41;99033.81;;;6.08;92.03
11542;BME280;5827;49.482;7.716;2023-04-26T06:15:44;99034.38;;;6.44;90.86
11542;BME280;5827;49.482;7.716;2023-04-26T06:17:45;99032.28;;;6.52;89.71
11542;BME280;5827;49.482;7.716;2023-04-26T06:19:47;99032.78;;;6.29;88.84
11542;BME280;5827;49.482;7.716;2023-04-26T06:21:48;99041.56;;;6.88;89.38
11542;BME280;5827;49.482;7.716;2023-04-26T06:23:51;99040.75;;;7.19;87.00
11542;BME280;5827;49.482;7.716;2023-04-26T06:25:53;99052.03;;;7.53;86.26
11542;BME280;5827;49.482;7.716;2023-04-26T06:27:54;99038.97;;;6.68;87.64
11542;BME280;5827;49.482;7.716;2023-04-26T06:29:58;99046.44;;;7.61;86.40
11542;BME280;5827;49.482;7.716;2023-04-26T06:32:01;99054.06;;;8.26;84.99
11542;BME280;5827;49.482;7.716;2023-04-26T06:34:03;99053.34;;;8.55;82.01
11542;BME280;5827;49.482;7.716;2023-04-26T06:36:05;99055.34;;;8.78;78.68
11542;BME280;5827;49.482;7.716;2023-04-26T06:38:06;99054.19;;;8.12;80.30
11542;BME280;5827;49.482;7.716;2023-04-26T06:40:09;99048.81;;;7.69;83.84
11542;BME280;5827;49.482;7.716;2023-04-26T06:42:13;99060.97;;;8.52;80.78
11542;BME280;5827;49.482;7.716;2023-04-26T06:44:14;99059.59;;;8.68;80.25
11542;BME280;5827;49.482;7.716;2023-04-26T06:46:16;99062.66;;;9.01;78.46
11542;BME280;5827;49.482;7.716;2023-04-26T06:48:19;99041.84;;;7.43;83.65
11542;BME280;5827;49.482;7.716;2023-04-26T06:50:21;99051.00;;;8.22;81.81
11542;BME280;5827;49.482;7.716;2023-04-26T06:52:22;99061.50;;;8.42;81.16
11542;BME280;5827;49.482;7.716;2023-04-26T06:54:27;99046.69;;;8.03;81.75
11542;BME280;5827;49.482;7.716;2023-04-26T06:56:28;99048.94;;;7.81;82.09
11542;BME280;5827;49.482;7.716;2023-04-26T06:58:30;99046.28;;;8.43;83.04
11542;BME280;5827;49.482;7.716;2023-04-26T07:00:31;99054.56;;;9.08;79.93
11542;BME280;5827;49.482;7.716;2023-04-26T07:02:33;99054.94;;;9.53;79.64
11542;BME280;5827;49.482;7.716;2023-04-26T07:04:36;99060.44;;;9.28;76.90
11542;BME280;5827;49.482;7.716;2023-04-26T07:06:37;99066.66;;;9.52;74.94
11542;BME280;5827;49.482;7.716;2023-04-26T07:08:39;99066.69;;;9.64;73.16
11542;BME280;5827;49.482;7.716;2023-04-26T07:10:40;99063.50;;;8.83;73.97
11542;BME280;5827;49.482;7.716;2023-04-26T07:12:42;99071.19;;;9.52;74.32
11542;BME280;5827;49.482;7.716;2023-04-26T07:14:43;99073.41;;;9.13;74.14
11542;BME280;5827;49.482;7.716;2023-04-26T07:16:45;99053.91;;;8.94;80.49
11542;BME280;5827;49.482;7.716;2023-04-26T07:18:46;99052.03;;;9.25;81.47
11542;BME280;5827;49.482;7.716;2023-04-26T07:20:49;99054.38;;;8.54;78.85
11542;BME280;5827;49.482;7.716;2023-04-26T07:22:51;99045.44;;;8.24;78.56
11542;BME280;5827;49.482;7.716;2023-04-26T07:24:52;99044.25;;;8.93;80.35
11542;BME280;5827;49.482;7.716;2023-04-26T07:26:54;99050.09;;;9.02;76.46
11542;BME280;5827;49.482;7.716;2023-04-26T07:28:55;99050.00;;;8.78;77.26
11542;BME280;5827;49.482;7.716;2023-04-26T07:30:57;99053.44;;;8.24;76.86
11542;BME280;5827;49.482;7.716;2023-04-26T07:32:59;99051.69;;;8.91;75.86
11542;BME280;5827;49.482;7.716;2023-04-26T07:35:03;99050.25;;;8.88;77.33
11542;BME280;5827;49.482;7.716;2023-04-26T07:37:06;99052.50;;;9.22;77.19
11542;BME280;5827;49.482;7.716;2023-04-26T07:39:07;99053.53;;;9.51;73.04
11542;BME280;5827;49.482;7.716;2023-04-26T07:41:10;99052.63;;;9.68;73.27
11542;BME280;5827;49.482;7.716;2023-04-26T07:43:13;99055.44;;;9.97;72.18
11542;BME280;5827;49.482;7.716;2023-04-26T07:45:15;99050.84;;;9.51;73.20
11542;BME280;5827;49.482;7.716;2023-04-26T07:47:17;99044.84;;;10.02;71.03
11542;BME280;5827;49.482;7.716;2023-04-26T07:49:18;99046.59;;;9.85;71.27
11542;BME280;5827;49.482;7.716;2023-04-26T07:51:20;99058.72;;;9.99;69.54
11542;BME280;5827;49.482;7.716;2023-04-26T07:53:22;99064.06;;;10.23;68.73
11542;BME280;5827;49.482;7.716;2023-04-26T07:55:24;99059.53;;;10.58;67.86
11542;BME280;5827;49.482;7.716;2023-04-26T07:57:26;99059.06;;;10.38;68.75
11542;BME280;5827;49.482;7.716;2023-04-26T07:59:27;99052.94;;;9.49;69.71
11542;BME280;5827;49.482;7.716;2023-04-26T08:01:29;99043.66;;;10.22;73.09
11542;BME280;5827;49.482;7.716;2023-04-26T08:03:31;99050.91;;;10.21;70.45
11542;BME280;5827;49.482;7.716;2023-04-26T08:05:32;99045.31;;;10.46;69.67
11542;BME280;5827;49.482;7.716;2023-04-26T08:07:34;99056.25;;;10.56;64.94
11542;BME280;5827;49.482;7.716;2023-04-26T08:09:37;99062.25;;;10.75;64.37
11542;BME280;5827;49.482;7.716;2023-04-26T08:11:38;99071.81;;;10.71;65.06
11542;BME280;5827;49.482;7.716;2023-04-26T08:13:41;99068.97;;;10.89;65.47
11542;BME280;5827;49.482;7.716;2023-04-26T08:15:43;99073.59;;;10.77;63.94
11542;BME280;5827;49.482;7.716;2023-04-26T08:17:45;99075.91;;;11.42;63.83
11542;BME280;5827;49.482;7.716;2023-04-26T08:19:47;99068.75;;;10.91;61.66
11542;BME280;5827;49.482;7.716;2023-04-26T08:21:48;99071.63;;;11.75;61.06
11542;BME280;5827;49.482;7.716;2023-04-26T08:23:50;99083.69;;;10.87;57.23
11542;BME280;5827;49.482;7.716;2023-04-26T08:25:53;99090.66;;;11.28;54.20
11542;BME280;5827;49.482;7.716;2023-04-26T08:27:54;99097.47;;;11.19;51.06
11542;BME280;5827;49.482;7.716;2023-04-26T08:29:56;99101.09;;;11.41;50.47
11542;BME280;5827;49.482;7.716;2023-04-26T08:31:57;99089.50;;;10.96;52.54
11542;BME280;5827;49.482;7.716;2023-04-26T08:33:59;99081.91;;;11.33;54.56
11542;BME280;5827;49.482;7.716;2023-04-26T08:36:00;99076.00;;;11.64;54.68
11542;BME280;5827;49.482;7.716;2023-04-26T08:38:02;99087.91;;;11.85;52.92
11542;BME280;5827;49.482;7.716;2023-04-26T08:40:04;99078.13;;;12.30;53.70
11542;BME280;5827;49.482;7.716;2023-04-26T08:42:13;99081.22;;;12.38;53.05
11542;BME280;5827;49.482;7.716;2023-04-26T08:44:16;99072.00;;;12.51;52.06
11542;BME280;5827;49.482;7.716;2023-04-26T08:46:24;99089.06;;;12.62;50.25
11542;BME280;5827;49.482;7.716;2023-04-26T08:48:29;99075.88;;;12.21;50.87
11542;BME280;5827;49.482;7.716;2023-04-26T08:50:35;99075.31;;;11.86;49.90
11542;BME280;5827;49.482;7.716;2023-04-26T08:52:38;99083.16;;;12.43;49.29
11542;BME280;5827;49.482;7.716;2023-04-26T08:54:40;99085.25;;;12.80;50.13
11542;BME280;5827;49.482;7.716;2023-04-26T08:56:42;99081.03;;;11.61;50.90
11542;BME280;5827;49.482;7.716;2023-04-26T08:58:45;99084.72;;;12.22;50.90
11542;BME280;5827;49.482;7.716;2023-04-26T09:00:48;99084.09;;;12.15;49.96
11542;BME280;5827;49.482;7.716;2023-04-26T09:02:51;99093.97;;;12.65;48.73
11542;BME280;5827;49.482;7.716;2023-04-26T09:04:53;99092.66;;;12.51;48.26
11542;BME280;5827;49.482;7.716;2023-04-26T09:06:58;99089.94;;;12.89;48.80
11542;BME280;5827;49.482;7.716;2023-04-26T09:09:02;99097.25;;;12.72;47.16
11542;BME280;5827;49.482;7.716;2023-04-26T09:11:07;99090.06;;;13.21;48.87
11542;BME280;5827;49.482;7.716;2023-04-26T09:13:08;99084.75;;;12.83;47.92
11542;BME280;5827;49.482;7.716;2023-04-26T09:15:13;99100.59;;;13.23;45.71
11542;BME280;5827;49.482;7.716;2023-04-26T09:17:26;99101.59;;;13.39;45.15
11542;BME280;5827;49.482;7.716;2023-04-26T09:19:34;99107.03;;;13.00;44.44
11542;BME280;5827;49.482;7.716;2023-04-26T09:21:41;99107.72;;;13.34;44.34
11542;BME280;5827;49.482;7.716;2023-04-26T09:23:56;99107.78;;;13.66;44.88
11542;BME280;5827;49.482;7.716;2023-04-26T09:26:17;99098.88;;;13.39;45.38
11542;BME280;5827;49.482;7.716;2023-04-26T09:28:20;99094.78;;;13.58;46.74
11542;BME280;5827;49.482;7.716;2023-04-26T09:30:24;99102.66;;;13.16;45.10
11542;BME280;5827;49.482;7.716;2023-04-26T09:32:26;99100.94;;;13.10;43.68
11542;BME280;5827;49.482;7.716;2023-04-26T09:34:44;99093.19;;;13.13;45.23
11542;BME280;5827;49.482;7.716;2023-04-26T09:36:50;99082.19;;;13.15;45.95
11542;BME280;5827;49.482;7.716;2023-04-26T09:38:52;99080.31;;;12.93;45.79
11542;BME280;5827;49.482;7.716;2023-04-26T09:40:54;99085.06;;;13.08;46.18
11542;BME280;5827;49.482;7.716;2023-04-26T09:43:03;99082.97;;;13.37;46.66
11542;BME280;5827;49.482;7.716;2023-04-26T09:45:05;99081.88;;;13.33;45.37
11542;BME280;5827;49.482;7.716;2023-04-26T09:47:09;99074.66;;;13.39;47.77
11542;BME280;5827;49.482;7.716;2023-04-26T09:49:11;99077.50;;;13.05;47.00
11542;BME280;5827;49.482;7.716;2023-04-26T09:51:12;99076.28;;;13.40;46.32
11542;BME280;5827;49.482;7.716;2023-04-26T09:53:27;99082.66;;;13.29;44.58
11542;BME280;5827;49.482;7.716;2023-04-26T09:55:30;99093.03;;;13.74;43.54
11542;BME280;5827;49.482;7.716;2023-04-26T09:57:32;99095.47;;;13.76;43.56
11542;BME280;5827;49.482;7.716;2023-04-26T09:59:44;99088.84;;;13.29;43.82
11542;BME280;5827;49.482;7.716;2023-04-26T10:01:46;99083.13;;;12.82;43.30
11542;BME280;5827;49.482;7.716;2023-04-26T10:03:49;99084.66;;;13.43;43.99
11542;BME280;5827;49.482;7.716;2023-04-26T10:05:51;99086.88;;;13.79;45.09
11542;BME280;5827;49.482;7.716;2023-04-26T10:07:53;99085.66;;;13.10;45.29
11542;BME280;5827;49.482;7.716;2023-04-26T10:09:56;99084.09;;;13.41;44.12
11542;BME280;5827;49.482;7.716;2023-04-26T10:11:58;99101.13;;;13.47;41.19
11542;BME280;5827;49.482;7.716;2023-04-26T10:14:00;99095.53;;;13.27;41.49
11542;BME280;5827;49.482;7.716;2023-04-26T10:16:03;99088.28;;;12.83;42.03
11542;BME280;5827;49.482;7.716;2023-04-26T10:18:05;99079.00;;;13.72;44.46
11542;BME280;5827;49.482;7.716;2023-04-26T10:20:10;99076.72;;;13.59;43.00
11542;BME280;5827;49.482;7.716;2023-04-26T10:22:16;99077.22;;;13.83;42.50
11542;BME280;5827;49.482;7.716;2023-04-26T10:24:21;99081.34;;;13.63;41.13
11542;BME280;5827;49.482;7.716;2023-04-26T10:26:50;99077.47;;;13.81;40.00
11542;BME280;5827;49.482;7.716;2023-04-26T10:28:54;99075.22;;;14.05;39.76
11542;BME280;5827;49.482;7.716;2023-04-26T10:30:57;99063.28;;;13.91;40.63
11542;BME280;5827;49.482;7.716;2023-04-26T10:33:15;99057.75;;;14.50;42.28
11542;BME280;5827;49.482;7.716;2023-04-26T10:35:18;99071.38;;;14.33;41.09
11542;BME280;5827;49.482;7.716;2023-04-26T10:37:20;99078.13;;;14.31;38.88
11542;BME280;5827;49.482;7.716;2023-04-26T10:39:22;99066.34;;;14.47;38.96
11542;BME280;5827;49.482;7.716;2023-04-26T10:41:33;99066.81;;;13.96;40.71
11542;BME280;5827;49.482;7.716;2023-04-26T10:43:35;99048.16;;;14.27;41.53
11542;BME280;5827;49.482;7.716;2023-04-26T10:45:43;99047.34;;;13.25;41.55
11542;BME280;5827;49.482;7.716;2023-04-26T10:47:44;99025.78;;;14.21;43.71
11542;BME280;5827;49.482;7.716;2023-04-26T10:49:46;99025.97;;;14.15;42.70
11542;BME280;5827;49.482;7.716;2023-04-26T10:52:09;99039.59;;;13.93;40.63
11542;BME280;5827;49.482;7.716;2023-04-26T10:54:14;99041.81;;;14.06;40.47
11542;BME280;5827;49.482;7.716;2023-04-26T10:56:52;99037.44;;;13.95;40.59
11542;BME280;5827;49.482;7.716;2023-04-26T10:59:06;99025.44;;;14.13;42.25
11542;BME280;5827;49.482;7.716;2023-04-26T11:01:12;99035.03;;;14.41;39.92